Fire Island Pines, New York
Current Conditions -  °F | °C
As of 1:56 AM on Thursday 23 Oct 2014 (Local Time) from KISP Reporting Station
Overcast Overcast  
Wind Chill: 52°   Ceiling: 1700
Heat Index: 52°   Visibility: 10mi
Dew Point: 47°   Wind: 28mph
Humidity: 83%   Direction: 20°NNE
Pressure: 29.64"   Gusts: 32mph
Location:  40.7472°N, 73.0832°W
Report Text: KISP 230556Z AUTO 02024G28KT 10SM OVC017 11/08 A2964 RMK AO2 PK WND 02036/0500 SLP037 60033 T01110083 10122 20106 58001
Loading
Personal Weather Stations






























Interactive Weather Map
Tropical Storm Tracking
New forecast layout! Learn more

10-Day Weather Forecast

Advertisements
Track Severe Weather on mobile